Southwick, Massachusetts
Current Conditions -  °F | °C
As of 12:53 PM on Monday 24 Nov 2014 (Local Time) from KBAF Reporting Station
Overcast Overcast  
Wind Chill: 65°   Ceiling: 2300
Heat Index: 65°   Visibility: 10mi
Dew Point: 60°   Wind: 12mph
Humidity: 84%   Direction: 170°S
Pressure: 29.58"   Gusts: NA
Location:  42.05°N, 72.77°W
Report Text: KBAF 241753Z 17010KT 10SM BKN023 BKN028 OVC035 18/16 A2958 RMK AO2 SLP020 60020 T01830156 10183 20050 58026
Loading
Personal Weather Stations






























Interactive Weather Map New forecast layout! Learn more

10-Day Weather Forecast

Advertisements
Track Severe Weather on mobile